createdAt,value
2019-04-14T00:00:36.298Z,99.90
2019-04-14T00:03:21.590Z,99.90
2019-04-14T00:05:51.708Z,99.90
2019-04-14T00:08:19.793Z,99.90
2019-04-14T00:10:47.184Z,99.90
2019-04-14T00:13:15.241Z,99.90
2019-04-14T00:15:46.744Z,99.90
2019-04-14T00:18:11.822Z,99.90
2019-04-14T00:20:39.069Z,99.90
2019-04-14T00:23:06.579Z,99.90
2019-04-14T00:25:34.780Z,99.90
2019-04-14T00:28:02.934Z,99.90
2019-04-14T00:30:30.213Z,99.90
2019-04-14T00:32:59.642Z,99.90
2019-04-14T00:35:36.426Z,99.90
2019-04-14T00:38:23.764Z,99.90
2019-04-14T00:41:13.757Z,99.90
2019-04-14T00:43:59.578Z,99.90
2019-04-14T00:46:34.201Z,99.90
2019-04-14T00:49:02.705Z,99.90
2019-04-14T00:51:30.879Z,99.90
2019-04-14T00:53:58.155Z,99.90
2019-04-14T00:56:25.840Z,99.90
2019-04-14T00:58:53.900Z,99.90
2019-04-14T01:01:21.885Z,99.90
2019-04-14T01:03:48.929Z,99.90
2019-04-14T01:06:16.384Z,99.90
2019-04-14T01:08:44.561Z,99.90
2019-04-14T01:11:11.773Z,99.90
2019-04-14T01:13:39.766Z,99.90
2019-04-14T01:16:13.340Z,99.90
2019-04-14T01:18:36.439Z,99.90
2019-04-14T01:21:05.095Z,99.90
2019-04-14T01:23:33.049Z,99.90
2019-04-14T01:26:00.679Z,99.90
2019-04-14T01:28:28.589Z,99.90
2019-04-14T01:30:56.610Z,99.90
2019-04-14T01:33:23.590Z,99.90
2019-04-14T01:35:50.999Z,99.90
2019-04-14T01:38:19.004Z,99.90
2019-04-14T01:40:46.656Z,99.90
2019-04-14T01:43:14.597Z,99.90
2019-04-14T01:45:42.537Z,99.90
2019-04-14T01:48:10.484Z,99.90
2019-04-14T01:50:47.408Z,99.90
2019-04-14T01:53:20.989Z,99.90
2019-04-14T01:55:56.996Z,99.90
2019-04-14T01:58:29.287Z,99.90
2019-04-14T02:01:06.252Z,99.90
2019-04-14T02:03:34.433Z,99.90
2019-04-14T02:06:02.524Z,99.90
2019-04-14T02:08:30.579Z,99.90
2019-04-14T02:10:58.700Z,99.90
2019-04-14T02:13:26.822Z,99.90
2019-04-14T02:15:54.954Z,99.90
2019-04-14T02:18:22.928Z,99.90
2019-04-14T02:20:51.076Z,99.90
2019-04-14T02:23:19.246Z,99.90
2019-04-14T02:25:47.173Z,99.90
2019-04-14T02:28:15.479Z,99.90
2019-04-14T02:30:54.044Z,99.90
2019-04-14T02:33:38.931Z,99.90
2019-04-14T02:36:14.098Z,99.90
2019-04-14T02:38:43.484Z,99.90
2019-04-14T02:46:04.103Z,99.90
2019-04-14T02:51:04.271Z,99.90
2019-04-14T02:53:32.611Z,99.90
2019-04-14T02:56:05.475Z,99.90
2019-04-14T02:58:30.576Z,99.90
2019-04-14T03:00:58.488Z,99.90
2019-04-14T03:05:53.141Z,99.90
2019-04-14T03:10:47.999Z,99.90
2019-04-14T03:15:53.813Z,99.90
2019-04-14T03:18:44.000Z,99.90
2019-04-14T03:21:36.325Z,99.90
2019-04-14T03:24:29.220Z,99.90
2019-04-14T03:26:56.208Z,99.90
2019-04-14T03:29:43.440Z,99.90
2019-04-14T03:32:14.157Z,99.90
2019-04-14T03:39:31.349Z,99.90
2019-04-14T03:41:52.778Z,99.90
2019-04-14T03:44:28.642Z,99.90
2019-04-14T03:47:21.795Z,99.90
2019-04-14T03:49:37.335Z,99.90
2019-04-14T03:51:50.235Z,99.90
2019-04-14T03:54:09.712Z,99.90
2019-04-14T03:56:46.336Z,99.90
2019-04-14T03:59:15.105Z,99.90
2019-04-14T04:01:43.428Z,99.90
2019-04-14T04:04:11.771Z,99.90
2019-04-14T04:06:39.937Z,99.90
2019-04-14T04:09:08.218Z,99.90
2019-04-14T04:11:36.542Z,99.90
2019-04-14T04:14:03.821Z,99.90
2019-04-14T04:16:48.994Z,99.90
2019-04-14T04:19:25.112Z,99.90
2019-04-14T04:22:10.635Z,99.90
2019-04-14T04:24:49.932Z,99.90
2019-04-14T04:27:54.829Z,99.90
2019-04-14T04:30:30.452Z,99.90
2019-04-14T04:33:10.698Z,99.90
2019-04-14T04:35:45.756Z,99.90
2019-04-14T04:38:35.594Z,99.90
2019-04-14T04:41:03.656Z,99.90
2019-04-14T04:43:31.845Z,99.90
2019-04-14T04:45:58.843Z,99.90
2019-04-14T04:48:26.406Z,99.90
2019-04-14T04:50:54.236Z,99.90
2019-04-14T04:53:22.306Z,99.90
2019-04-14T04:55:50.363Z,99.90
2019-04-14T04:58:17.382Z,99.90
2019-04-14T05:00:47.285Z,99.90
2019-04-14T05:03:13.060Z,99.90
2019-04-14T05:06:09.122Z,99.90
2019-04-14T05:08:39.149Z,99.90
2019-04-14T05:11:14.356Z,99.90
2019-04-14T05:13:43.087Z,99.90
2019-04-14T05:16:10.654Z,99.90
2019-04-14T05:18:37.843Z,99.90
2019-04-14T05:21:06.039Z,99.90
2019-04-14T05:23:34.232Z,99.90
2019-04-14T05:26:01.222Z,99.90
2019-04-14T05:28:28.850Z,99.90
2019-04-14T05:30:56.863Z,99.90
2019-04-14T05:33:25.004Z,99.90
2019-04-14T05:35:53.181Z,99.90
2019-04-14T05:38:21.192Z,99.90
2019-04-14T05:40:49.685Z,99.90
2019-04-14T05:43:28.189Z,99.90
2019-04-14T05:45:45.794Z,99.90
2019-04-14T05:48:13.855Z,99.90
2019-04-14T05:50:42.167Z,99.90
2019-04-14T05:53:09.092Z,99.90
2019-04-14T05:55:37.271Z,99.90
2019-04-14T05:58:05.607Z,99.90
2019-04-14T06:00:34.138Z,99.90
2019-04-14T06:03:01.714Z,99.90
2019-04-14T06:05:29.631Z,99.90
2019-04-14T06:07:56.623Z,99.90
2019-04-14T06:10:23.462Z,99.90
2019-04-14T06:12:50.401Z,99.90
2019-04-14T06:15:17.401Z,99.90
2019-04-14T06:17:44.271Z,99.90
2019-04-14T06:20:11.364Z,99.90
2019-04-14T06:22:38.389Z,99.90
2019-04-14T06:25:06.282Z,99.90
2019-04-14T06:27:34.208Z,99.90
2019-04-14T06:30:07.394Z,99.90
2019-04-14T06:32:40.350Z,99.90
2019-04-14T06:35:19.751Z,99.90
2019-04-14T06:38:05.833Z,99.90
2019-04-14T06:40:37.087Z,99.90
2019-04-14T06:43:03.962Z,99.90
2019-04-14T06:45:30.786Z,99.90
2019-04-14T06:47:57.925Z,99.90
2019-04-14T06:50:24.826Z,99.90
2019-04-14T06:52:52.346Z,99.90
2019-04-14T06:55:19.262Z,99.90
2019-04-14T06:57:46.062Z,99.90
2019-04-14T07:00:13.322Z,99.90
2019-04-14T07:02:40.142Z,99.90
2019-04-14T07:05:07.137Z,99.90
2019-04-14T07:07:34.209Z,99.90
2019-04-14T07:10:01.097Z,99.90
2019-04-14T07:12:28.129Z,99.90
2019-04-14T07:14:55.166Z,99.90
2019-04-14T07:17:22.053Z,99.90
2019-04-14T07:20:01.020Z,99.90
2019-04-14T07:22:17.614Z,99.90
2019-04-14T07:24:44.422Z,99.90
2019-04-14T07:27:11.366Z,99.90
2019-04-14T07:29:47.066Z,99.90
2019-04-14T07:32:32.433Z,99.90
2019-04-14T07:35:08.586Z,99.90
2019-04-14T07:37:54.106Z,99.90
2019-04-14T07:40:30.343Z,99.90
2019-04-14T07:43:09.369Z,99.90
2019-04-14T07:45:48.276Z,99.90
2019-04-14T07:48:20.726Z,99.90
2019-04-14T07:51:11.465Z,99.90
2019-04-14T07:53:48.774Z,99.90
2019-04-14T07:56:50.641Z,99.90
2019-04-14T07:59:25.966Z,99.90
2019-04-14T08:02:00.203Z,99.90
2019-04-14T08:04:32.625Z,99.90
2019-04-14T08:06:59.885Z,99.90
2019-04-14T08:09:26.795Z,99.90
2019-04-14T08:11:53.723Z,99.90
2019-04-14T08:14:20.577Z,99.90
2019-04-14T08:16:47.628Z,99.90
2019-04-14T08:19:15.658Z,99.90
2019-04-14T08:21:42.606Z,99.90
2019-04-14T08:24:09.550Z,99.90
2019-04-14T08:26:36.515Z,99.90
2019-04-14T08:29:03.526Z,99.90
2019-04-14T08:31:30.435Z,99.90
2019-04-14T08:33:57.273Z,99.90
2019-04-14T08:36:24.170Z,99.90
2019-04-14T08:38:50.961Z,99.90
2019-04-14T08:41:17.793Z,99.90
2019-04-14T08:44:16.149Z,99.90
2019-04-14T08:47:01.227Z,99.90
2019-04-14T08:49:42.631Z,99.90
2019-04-14T08:54:59.049Z,99.90
2019-04-14T08:57:48.094Z,99.90
2019-04-14T09:00:33.703Z,99.90
2019-04-14T09:03:32.328Z,99.90
2019-04-14T09:06:06.472Z,99.90
2019-04-14T09:08:55.225Z,99.90
2019-04-14T09:11:28.422Z,99.90
2019-04-14T09:13:55.258Z,99.90
2019-04-14T09:16:22.122Z,99.90
2019-04-14T09:18:49.050Z,99.90
2019-04-14T09:21:16.000Z,99.90
2019-04-14T09:23:42.944Z,99.90
2019-04-14T09:26:09.966Z,99.90
2019-04-14T09:28:36.993Z,99.90
2019-04-14T09:31:03.796Z,99.90
2019-04-14T09:33:30.757Z,99.90
2019-04-14T09:35:57.682Z,99.90
2019-04-14T09:38:26.650Z,99.90
2019-04-14T09:40:53.455Z,99.90
2019-04-14T09:43:20.481Z,99.90
2019-04-14T09:45:47.414Z,99.90
2019-04-14T09:48:14.502Z,99.70
2019-04-14T09:50:41.321Z,99.90
2019-04-14T09:53:08.366Z,99.70
2019-04-14T09:55:35.177Z,99.90
2019-04-14T09:58:02.101Z,99.50
2019-04-14T10:00:29.169Z,99.40
2019-04-14T10:02:56.278Z,99.90
2019-04-14T10:05:23.068Z,99.30
2019-04-14T10:07:49.914Z,99.80
2019-04-14T10:10:16.949Z,99.80
2019-04-14T10:12:46.384Z,99.30
2019-04-14T10:15:13.529Z,98.90
2019-04-14T10:17:40.778Z,99.30
2019-04-14T10:20:07.814Z,99.60
2019-04-14T10:22:34.636Z,99.70
2019-04-14T10:25:01.704Z,98.30
2019-04-14T10:27:28.697Z,98.10
2019-04-14T10:29:55.509Z,97.80
2019-04-14T10:32:22.394Z,96.40
2019-04-14T10:34:49.233Z,96.40
2019-04-14T10:37:16.038Z,96.30
2019-04-14T10:39:42.842Z,96.60
2019-04-14T10:42:09.703Z,97.40
2019-04-14T10:44:36.514Z,96.00
2019-04-14T10:47:03.616Z,96.10
2019-04-14T10:49:30.670Z,95.40
2019-04-14T10:51:57.683Z,95.20
2019-04-14T10:54:24.488Z,95.00
2019-04-14T10:56:51.459Z,95.00
2019-04-14T10:59:18.452Z,94.60
2019-04-14T11:01:45.284Z,93.70
2019-04-14T11:04:12.086Z,94.10
2019-04-14T11:06:42.165Z,93.60
2019-04-14T11:09:13.241Z,93.40
2019-04-14T11:11:40.233Z,93.90
2019-04-14T11:14:07.030Z,94.80
2019-04-14T11:16:33.846Z,94.40
2019-04-14T11:19:00.685Z,94.50
2019-04-14T11:21:27.469Z,95.00
2019-04-14T11:23:54.310Z,94.30
2019-04-14T11:26:21.089Z,93.60
2019-04-14T11:28:47.892Z,94.10
2019-04-14T11:31:16.728Z,93.90
2019-04-14T11:34:00.148Z,95.10
2019-04-14T11:36:58.993Z,94.60
2019-04-14T11:39:25.869Z,94.20
2019-04-14T11:41:52.792Z,93.00
2019-04-14T11:44:22.467Z,91.60
2019-04-14T11:46:49.497Z,91.60
2019-04-14T11:49:16.896Z,92.20
2019-04-14T11:51:54.768Z,91.90
2019-04-14T11:54:12.795Z,92.20
2019-04-14T11:56:39.807Z,93.70
2019-04-14T11:59:06.714Z,92.40
2019-04-14T12:01:46.364Z,91.30
2019-04-14T12:04:24.021Z,91.60
2019-04-14T12:07:13.033Z,92.40
2019-04-14T12:09:46.726Z,92.70
2019-04-14T12:12:13.621Z,92.40
2019-04-14T12:14:43.436Z,91.10
2019-04-14T12:17:10.283Z,91.00
2019-04-14T12:19:37.102Z,92.10
2019-04-14T12:22:08.582Z,90.90
2019-04-14T12:24:32.949Z,90.90
2019-04-14T12:26:59.866Z,91.50
2019-04-14T12:29:26.797Z,91.70
2019-04-14T12:31:55.276Z,90.90
2019-04-14T12:34:22.412Z,91.70
2019-04-14T12:36:49.481Z,92.30
2019-04-14T12:39:22.322Z,89.80
2019-04-14T12:41:57.163Z,89.50
2019-04-14T12:44:53.121Z,88.50
2019-04-14T12:47:42.249Z,90.70
2019-04-14T12:50:17.654Z,89.60
2019-04-14T12:52:44.485Z,86.80
2019-04-14T12:55:11.379Z,90.00
2019-04-14T12:57:46.506Z,89.50
2019-04-14T13:00:35.014Z,90.10
2019-04-14T13:03:02.101Z,87.50
2019-04-14T13:05:29.133Z,90.20
2019-04-14T13:07:56.366Z,88.80
2019-04-14T13:10:23.410Z,90.00
2019-04-14T13:12:50.327Z,89.70
2019-04-14T13:15:17.626Z,91.30
2019-04-14T13:17:44.568Z,91.20
2019-04-14T13:20:11.662Z,92.10
2019-04-14T13:22:38.630Z,92.50
2019-04-14T13:25:05.996Z,90.80
2019-04-14T13:27:32.871Z,88.10
2019-04-14T13:29:59.945Z,91.20
2019-04-14T13:32:35.945Z,91.40
2019-04-14T13:34:55.479Z,91.10
2019-04-14T13:37:22.419Z,91.40
2019-04-14T13:39:49.411Z,91.90
2019-04-14T13:42:16.350Z,91.80
2019-04-14T13:44:43.290Z,90.80
2019-04-14T13:47:10.095Z,90.70
2019-04-14T13:49:36.990Z,91.50
2019-04-14T13:52:04.067Z,92.90
2019-04-14T13:54:30.878Z,91.90
2019-04-14T13:56:57.863Z,91.80
2019-04-14T13:59:25.442Z,92.60
2019-04-14T14:01:52.326Z,92.60
2019-04-14T14:04:19.196Z,92.40
2019-04-14T14:06:46.094Z,93.20
2019-04-14T14:09:13.116Z,92.00
2019-04-14T14:11:53.415Z,92.70
2019-04-14T14:14:39.969Z,92.70
2019-04-14T14:17:17.515Z,91.80
2019-04-14T14:19:52.114Z,92.80
2019-04-14T14:22:29.339Z,92.50
2019-04-14T14:25:04.030Z,93.50
2019-04-14T14:27:30.948Z,94.30
2019-04-14T14:29:57.970Z,94.90
2019-04-14T14:32:33.257Z,93.00
2019-04-14T14:35:00.103Z,94.00
2019-04-14T14:37:27.038Z,95.20
2019-04-14T14:39:53.938Z,95.00
2019-04-14T14:42:20.851Z,94.80
2019-04-14T14:44:53.145Z,95.50
2019-04-14T14:47:23.079Z,96.30
2019-04-14T14:50:10.169Z,96.70
2019-04-14T14:52:38.258Z,96.90
2019-04-14T14:55:05.510Z,97.30
2019-04-14T14:57:32.397Z,98.30
2019-04-14T14:59:59.240Z,98.10
2019-04-14T15:02:26.313Z,97.80
2019-04-14T15:04:53.206Z,98.30
2019-04-14T15:07:21.242Z,96.90
2019-04-14T15:09:48.173Z,97.10
2019-04-14T15:12:14.988Z,97.70
2019-04-14T15:14:41.934Z,97.30
2019-04-14T15:17:09.384Z,97.10
2019-04-14T15:19:36.289Z,96.90
2019-04-14T15:22:03.744Z,97.10
2019-04-14T15:24:30.745Z,96.80
2019-04-14T15:26:57.587Z,96.40
2019-04-14T15:29:24.489Z,96.60
2019-04-14T15:31:51.310Z,96.90
2019-04-14T15:34:18.255Z,95.90
2019-04-14T15:36:45.071Z,96.10
2019-04-14T15:39:12.175Z,96.30
2019-04-14T15:41:39.235Z,96.10
2019-04-14T15:44:06.065Z,96.00
2019-04-14T15:46:33.120Z,96.50
2019-04-14T15:49:00.053Z,96.80
2019-04-14T15:51:27.068Z,97.10
2019-04-14T15:53:53.966Z,97.00
2019-04-14T15:56:32.502Z,98.10
2019-04-14T15:59:04.648Z,98.20
2019-04-14T16:01:59.897Z,98.80
2019-04-14T16:04:33.050Z,98.30
2019-04-14T16:07:19.589Z,98.50
2019-04-14T16:09:55.300Z,97.30
2019-04-14T16:12:34.698Z,97.50
2019-04-14T16:15:21.378Z,97.50
2019-04-14T16:18:08.574Z,97.70
2019-04-14T16:20:37.771Z,97.60
2019-04-14T16:23:04.649Z,97.50
2019-04-14T16:25:54.689Z,97.80
2019-04-14T16:28:29.698Z,97.90
2019-04-14T16:31:13.594Z,98.10
2019-04-14T16:33:58.469Z,98.30
2019-04-14T16:36:26.237Z,98.40
2019-04-14T16:38:53.268Z,98.50
2019-04-14T16:41:20.344Z,98.40
2019-04-14T16:43:47.419Z,98.70
2019-04-14T16:46:14.384Z,98.50
2019-04-14T16:48:41.333Z,98.90
2019-04-14T16:51:11.846Z,98.70
2019-04-14T16:53:40.471Z,99.10
2019-04-14T16:56:24.649Z,99.20
2019-04-14T16:59:03.658Z,98.90
2019-04-14T17:01:36.358Z,99.50
2019-04-14T17:04:03.460Z,99.90
2019-04-14T17:06:30.370Z,99.70
2019-04-14T17:08:57.278Z,99.90
2019-04-14T17:11:24.158Z,99.90
2019-04-14T17:13:59.800Z,99.90
2019-04-14T17:16:40.030Z,99.90
2019-04-14T17:19:11.009Z,99.90
2019-04-14T17:21:41.621Z,99.90
2019-04-14T17:24:39.826Z,99.90
2019-04-14T17:27:25.183Z,99.90
2019-04-14T17:30:11.678Z,99.90
2019-04-14T17:32:55.692Z,99.90
2019-04-14T17:35:47.908Z,99.90
2019-04-14T17:38:23.467Z,99.90
2019-04-14T17:41:12.493Z,99.90
2019-04-14T17:43:53.006Z,99.90
2019-04-14T17:46:38.137Z,99.90
2019-04-14T17:49:30.650Z,99.90
2019-04-14T17:52:17.094Z,99.90
2019-04-14T17:55:18.768Z,99.90
2019-04-14T17:58:03.574Z,99.90
2019-04-14T18:00:46.214Z,99.90
2019-04-14T18:03:44.895Z,99.90
2019-04-14T18:06:33.941Z,99.90
2019-04-14T18:09:20.509Z,99.90
2019-04-14T18:12:01.530Z,99.90
2019-04-14T18:14:50.537Z,99.90
2019-04-14T18:17:37.181Z,99.90
2019-04-14T18:20:07.166Z,99.90
2019-04-14T18:22:34.070Z,99.90
2019-04-14T18:25:00.993Z,99.90
2019-04-14T18:27:28.583Z,99.90
2019-04-14T18:30:16.578Z,99.90
2019-04-14T18:33:05.873Z,99.90
2019-04-14T18:36:07.133Z,99.90
2019-04-14T18:38:58.555Z,99.90
2019-04-14T18:41:57.483Z,99.90
2019-04-14T18:44:58.821Z,99.90
2019-04-14T18:47:34.136Z,99.90
2019-04-14T18:50:13.623Z,99.90
2019-04-14T18:52:54.421Z,99.90
2019-04-14T18:55:39.615Z,99.90
2019-04-14T18:58:21.505Z,99.90
2019-04-14T19:00:51.457Z,99.90
2019-04-14T19:03:18.362Z,99.90
2019-04-14T19:05:45.238Z,99.90
2019-04-14T19:08:12.062Z,99.90
2019-04-14T19:10:38.933Z,99.90
2019-04-14T19:13:17.727Z,99.90
2019-04-14T19:16:04.168Z,99.90
2019-04-14T19:18:42.671Z,99.90
2019-04-14T19:21:12.145Z,99.90
2019-04-14T19:23:39.135Z,99.90
2019-04-14T19:26:06.137Z,99.90
2019-04-14T19:28:32.947Z,99.90
2019-04-14T19:30:59.906Z,99.90
2019-04-14T19:33:26.737Z,99.90
2019-04-14T19:35:53.746Z,99.90
2019-04-14T19:38:20.619Z,99.90
2019-04-14T19:40:47.550Z,99.90
2019-04-14T19:43:23.722Z,99.90
2019-04-14T19:45:43.026Z,99.90
2019-04-14T19:48:09.949Z,99.90
2019-04-14T19:50:36.818Z,99.90
2019-04-14T19:53:03.797Z,99.90
2019-04-14T19:55:30.614Z,99.90
2019-04-14T19:57:57.505Z,99.90
2019-04-14T20:00:24.285Z,99.90
2019-04-14T20:02:51.079Z,99.90
2019-04-14T20:05:17.925Z,99.90
2019-04-14T20:07:44.961Z,99.90
2019-04-14T20:10:12.177Z,99.90
2019-04-14T20:12:39.154Z,99.90
2019-04-14T20:15:07.301Z,99.90
2019-04-14T20:17:52.593Z,99.90
2019-04-14T20:20:39.041Z,99.90
2019-04-14T20:23:24.254Z,99.90
2019-04-14T20:26:16.630Z,99.90
2019-04-14T20:28:57.490Z,99.90
2019-04-14T20:31:44.044Z,99.90
2019-04-14T20:34:11.046Z,99.90
2019-04-14T20:36:37.962Z,99.90
2019-04-14T20:39:09.679Z,99.90
2019-04-14T20:41:36.693Z,99.90
2019-04-14T20:44:03.689Z,99.90
2019-04-14T20:46:30.521Z,99.90
2019-04-14T20:48:57.338Z,99.90
2019-04-14T20:51:24.233Z,99.90
2019-04-14T20:53:51.148Z,99.90
2019-04-14T20:56:18.195Z,99.90
2019-04-14T20:58:45.078Z,99.90
2019-04-14T21:01:13.221Z,99.90
2019-04-14T21:03:59.781Z,99.90
2019-04-14T21:06:44.897Z,99.90
2019-04-14T21:09:15.431Z,99.90
2019-04-14T21:12:08.385Z,99.90
2019-04-14T21:14:53.817Z,99.90
2019-04-14T21:17:29.927Z,99.90
2019-04-14T21:20:12.084Z,99.90
2019-04-14T21:22:54.398Z,99.90
2019-04-14T21:25:44.297Z,99.90
2019-04-14T21:28:20.925Z,99.90
2019-04-14T21:30:55.794Z,99.90
2019-04-14T21:33:40.872Z,99.90
2019-04-14T21:36:14.974Z,99.90
2019-04-14T21:39:13.299Z,99.90
2019-04-14T21:41:40.804Z,99.90
2019-04-14T21:44:07.690Z,99.90
2019-04-14T21:46:34.467Z,99.90
2019-04-14T21:49:01.462Z,99.90
2019-04-14T21:51:46.922Z,99.90
2019-04-14T21:54:13.926Z,99.90
2019-04-14T21:56:41.206Z,99.90
2019-04-14T21:59:19.121Z,99.90
2019-04-14T22:02:20.773Z,99.90
2019-04-14T22:05:06.845Z,99.90
2019-04-14T22:07:40.422Z,99.90
2019-04-14T22:10:14.382Z,99.90
2019-04-14T22:12:41.408Z,99.90
2019-04-14T22:15:08.597Z,99.90
2019-04-14T22:17:35.534Z,99.90
2019-04-14T22:20:02.681Z,99.90
2019-04-14T22:22:29.469Z,99.90
2019-04-14T22:24:56.365Z,99.90
2019-04-14T22:27:23.942Z,99.90
2019-04-14T22:29:50.922Z,99.90
2019-04-14T22:32:17.709Z,99.90
2019-04-14T22:34:44.690Z,99.90
2019-04-14T22:37:11.622Z,99.90
2019-04-14T22:39:39.352Z,99.90
2019-04-14T22:42:06.625Z,99.90
2019-04-14T22:44:33.546Z,99.90
2019-04-14T22:47:00.343Z,99.90
2019-04-14T22:49:27.129Z,99.90
2019-04-14T22:51:54.090Z,99.90
2019-04-14T22:54:21.777Z,99.90
2019-04-14T22:56:48.561Z,99.90
2019-04-14T22:59:15.477Z,99.90
2019-04-14T23:01:44.802Z,99.90
2019-04-14T23:04:22.109Z,99.90
2019-04-14T23:07:11.515Z,99.90
2019-04-14T23:09:45.416Z,99.90
2019-04-14T23:12:30.617Z,99.90
2019-04-14T23:15:19.854Z,99.90
2019-04-14T23:17:59.778Z,99.90
2019-04-14T23:20:45.153Z,99.90
2019-04-14T23:23:46.873Z,99.90
2019-04-14T23:26:13.769Z,99.90
2019-04-14T23:28:40.679Z,99.90
2019-04-14T23:31:07.477Z,99.90
2019-04-14T23:33:34.388Z,99.90
2019-04-14T23:36:01.282Z,99.90
2019-04-14T23:38:28.301Z,99.90
2019-04-14T23:40:55.105Z,99.90
2019-04-14T23:43:22.009Z,99.90
2019-04-14T23:45:48.921Z,99.90
2019-04-14T23:48:15.718Z,99.90
2019-04-14T23:50:42.517Z,99.90
2019-04-14T23:53:10.728Z,99.90
2019-04-14T23:55:37.541Z,99.90
2019-04-14T23:58:04.454Z,99.90
